createdAt,value
2018-08-23T00:00:59.337Z,67.20
2018-08-23T00:01:59.356Z,67.60
2018-08-23T00:02:59.361Z,67.30
2018-08-23T00:03:59.354Z,68.50
2018-08-23T00:04:59.355Z,67.20
2018-08-23T00:05:59.394Z,65.90
2018-08-23T00:06:59.499Z,66.60
2018-08-23T00:07:59.402Z,68.10
2018-08-23T00:08:59.398Z,67.40
2018-08-23T00:09:59.458Z,69.70
2018-08-23T00:10:59.367Z,69.10
2018-08-23T00:11:59.371Z,69.60
2018-08-23T00:12:59.365Z,72.30
2018-08-23T00:13:59.389Z,70.90
2018-08-23T00:14:59.381Z,73.20
2018-08-23T00:15:59.377Z,71.20
2018-08-23T00:16:59.392Z,74.30
2018-08-23T00:17:59.397Z,70.60
2018-08-23T00:18:59.391Z,70.50
2018-08-23T00:19:59.504Z,72.40
2018-08-23T00:20:59.399Z,74.00
2018-08-23T00:21:59.399Z,72.90
2018-08-23T00:22:59.423Z,73.40
2018-08-23T00:23:59.456Z,75.10
2018-08-23T00:24:59.430Z,73.50
2018-08-23T00:25:59.401Z,75.10
2018-08-23T00:26:59.470Z,72.70
2018-08-23T00:27:59.440Z,73.10
2018-08-23T00:28:59.450Z,73.20
2018-08-23T00:29:59.455Z,70.80
2018-08-23T00:30:59.458Z,71.20
2018-08-23T00:31:59.472Z,73.30
2018-08-23T00:32:59.461Z,77.10
2018-08-23T00:33:59.504Z,73.40
2018-08-23T00:34:59.456Z,73.80
2018-08-23T00:35:59.474Z,71.90
2018-08-23T00:36:59.477Z,74.30
2018-08-23T00:37:59.465Z,76.50
2018-08-23T00:38:59.475Z,71.60
2018-08-23T00:39:59.488Z,73.50
2018-08-23T00:40:59.509Z,72.90
2018-08-23T00:41:59.476Z,74.20
2018-08-23T00:42:59.459Z,75.30
2018-08-23T00:43:59.478Z,75.20
2018-08-23T00:44:59.485Z,72.50
2018-08-23T00:45:59.505Z,73.00
2018-08-23T00:46:59.475Z,71.70
2018-08-23T00:47:59.552Z,75.30
2018-08-23T00:48:59.518Z,74.00
2018-08-23T00:49:59.507Z,73.20
2018-08-23T00:50:59.534Z,70.60
2018-08-23T00:51:59.504Z,72.00
2018-08-23T00:52:59.514Z,71.50
2018-08-23T00:53:59.535Z,75.90
2018-08-23T00:54:59.535Z,72.60
2018-08-23T00:55:59.528Z,71.10
2018-08-23T00:56:59.520Z,71.30
2018-08-23T00:57:59.526Z,70.40
2018-08-23T00:58:59.556Z,71.50
2018-08-23T00:59:59.561Z,69.60
2018-08-23T01:00:59.541Z,69.70
2018-08-23T01:01:59.534Z,70.40
2018-08-23T01:02:59.564Z,69.40
2018-08-23T01:03:59.539Z,69.60
2018-08-23T01:04:59.534Z,68.30
2018-08-23T01:05:59.547Z,67.30
2018-08-23T01:06:59.582Z,67.90
2018-08-23T01:07:59.568Z,69.50
2018-08-23T01:08:59.561Z,68.60
2018-08-23T01:09:59.577Z,69.10
2018-08-23T01:10:59.577Z,69.70
2018-08-23T01:11:59.569Z,71.50
2018-08-23T01:12:59.573Z,68.50
2018-08-23T01:13:59.682Z,71.20
2018-08-23T01:14:59.640Z,69.80
2018-08-23T01:15:59.571Z,68.60
2018-08-23T01:16:59.604Z,67.60
2018-08-23T01:17:59.572Z,70.10
2018-08-23T01:18:59.595Z,71.50
2018-08-23T01:19:59.607Z,70.10
2018-08-23T01:20:59.588Z,67.20
2018-08-23T01:21:59.598Z,70.10
2018-08-23T01:22:59.603Z,71.00
2018-08-23T01:23:59.606Z,70.20
2018-08-23T01:24:59.616Z,70.20
2018-08-23T01:25:59.622Z,71.30
2018-08-23T01:26:59.603Z,71.40
2018-08-23T01:27:59.616Z,70.70
2018-08-23T01:28:59.619Z,70.80
2018-08-23T01:29:59.633Z,68.80
2018-08-23T01:30:59.686Z,67.60
2018-08-23T01:31:59.662Z,68.70
2018-08-23T01:32:59.649Z,67.40
2018-08-23T01:33:59.636Z,69.20
2018-08-23T01:35:01.429Z,67.90
2018-08-23T01:35:59.629Z,73.20
2018-08-23T01:36:59.654Z,71.50
2018-08-23T01:37:59.685Z,69.40
2018-08-23T01:38:59.662Z,68.10
2018-08-23T01:39:59.645Z,66.80
2018-08-23T01:40:59.673Z,67.50
2018-08-23T01:42:00.312Z,68.90
2018-08-23T01:42:59.665Z,70.40
2018-08-23T01:43:59.690Z,71.70
2018-08-23T01:44:59.662Z,67.90
2018-08-23T01:45:59.667Z,68.10
2018-08-23T01:46:59.699Z,71.40
2018-08-23T01:47:59.706Z,70.70
2018-08-23T01:48:59.676Z,68.60
2018-08-23T01:49:59.715Z,70.20
2018-08-23T01:50:59.708Z,71.60
2018-08-23T01:51:59.681Z,70.00
2018-08-23T01:52:59.739Z,68.40
2018-08-23T01:53:59.774Z,68.60
2018-08-23T01:54:59.786Z,68.50
2018-08-23T01:55:59.711Z,70.10
2018-08-23T01:56:59.688Z,72.90
2018-08-23T01:57:59.824Z,70.70
2018-08-23T01:58:59.696Z,69.80
2018-08-23T01:59:59.732Z,70.50
2018-08-23T02:00:59.710Z,72.00
2018-08-23T02:01:59.743Z,69.00
2018-08-23T02:02:59.717Z,69.00
2018-08-23T02:03:59.755Z,68.60
2018-08-23T02:04:59.737Z,72.00
2018-08-23T02:05:59.723Z,71.80
2018-08-23T02:06:59.730Z,70.10
2018-08-23T02:07:59.730Z,69.80
2018-08-23T02:09:00.314Z,69.40
2018-08-23T02:09:59.734Z,71.80
2018-08-23T02:10:59.755Z,74.10
2018-08-23T02:11:59.752Z,71.90
2018-08-23T02:12:59.754Z,72.00
2018-08-23T02:13:59.760Z,73.30
2018-08-23T02:14:59.773Z,72.90
2018-08-23T02:15:59.753Z,72.20
2018-08-23T02:16:59.762Z,70.00
2018-08-23T02:17:59.769Z,72.90
2018-08-23T02:18:59.801Z,73.60
2018-08-23T02:19:59.872Z,72.80
2018-08-23T02:20:59.772Z,73.20
2018-08-23T02:21:59.765Z,77.20
2018-08-23T02:22:59.810Z,74.40
2018-08-23T02:23:59.775Z,75.90
2018-08-23T02:24:59.786Z,72.60
2018-08-23T02:25:59.867Z,72.60
2018-08-23T02:26:59.816Z,74.00
2018-08-23T02:27:59.808Z,73.90
2018-08-23T02:28:59.791Z,74.50
2018-08-23T02:29:59.800Z,77.90
2018-08-23T02:30:59.822Z,77.60
2018-08-23T02:31:59.804Z,79.70
2018-08-23T02:32:59.794Z,78.90
2018-08-23T02:33:59.796Z,79.20
2018-08-23T02:34:59.801Z,81.10
2018-08-23T02:35:59.861Z,78.70
2018-08-23T02:36:59.823Z,79.40
2018-08-23T02:37:59.828Z,82.50
2018-08-23T02:38:59.871Z,81.20
2018-08-23T02:39:59.851Z,81.00
2018-08-23T02:40:59.843Z,79.00
2018-08-23T02:41:59.852Z,77.90
2018-08-23T02:42:59.840Z,78.50
2018-08-23T02:43:59.873Z,81.60
2018-08-23T02:44:59.875Z,80.10
2018-08-23T02:45:59.830Z,82.20
2018-08-23T02:46:59.870Z,83.00
2018-08-23T02:47:59.862Z,79.10
2018-08-23T02:48:59.862Z,78.60
2018-08-23T02:49:59.865Z,78.60
2018-08-23T02:50:59.884Z,78.70
2018-08-23T02:51:59.921Z,80.40
2018-08-23T02:52:59.896Z,81.60
2018-08-23T02:53:59.896Z,82.90
2018-08-23T02:54:59.905Z,81.60
2018-08-23T02:55:59.882Z,84.20
2018-08-23T02:56:59.883Z,84.50
2018-08-23T02:57:59.868Z,83.20
2018-08-23T02:58:59.889Z,84.60
2018-08-23T02:59:59.918Z,80.30
2018-08-23T03:00:59.893Z,81.60
2018-08-23T03:01:59.961Z,81.00
2018-08-23T03:02:59.897Z,80.00
2018-08-23T03:03:59.901Z,83.30
2018-08-23T03:04:59.905Z,85.50
2018-08-23T03:05:59.942Z,84.00
2018-08-23T03:06:59.940Z,88.50
2018-08-23T03:07:59.944Z,89.50
2018-08-23T03:08:59.923Z,85.30
2018-08-23T03:09:59.923Z,91.70
2018-08-23T03:10:59.931Z,90.50
2018-08-23T03:11:59.925Z,89.10
2018-08-23T03:12:59.940Z,89.40
2018-08-23T03:13:59.942Z,87.90
2018-08-23T03:14:59.948Z,81.50
2018-08-23T03:15:59.955Z,81.80
2018-08-23T03:16:59.921Z,82.50
2018-08-23T03:17:59.940Z,85.40
2018-08-23T03:18:59.952Z,89.20
2018-08-23T03:20:00.029Z,88.40
2018-08-23T03:20:59.935Z,88.20
2018-08-23T03:21:59.956Z,88.50
2018-08-23T03:22:59.982Z,88.00
2018-08-23T03:24:00.010Z,87.10
2018-08-23T03:24:59.962Z,88.00
2018-08-23T03:25:59.963Z,91.70
2018-08-23T03:26:59.999Z,95.20
2018-08-23T03:27:59.972Z,95.90
2018-08-23T03:28:59.963Z,97.00
2018-08-23T03:30:00.105Z,101.10
2018-08-23T03:30:59.981Z,99.10
2018-08-23T03:32:00.011Z,93.80
2018-08-23T03:32:59.998Z,95.90
2018-08-23T03:33:59.972Z,93.60
2018-08-23T03:34:59.994Z,89.20
2018-08-23T03:35:59.992Z,90.00
2018-08-23T03:37:00.025Z,89.90
2018-08-23T03:37:59.990Z,90.80
2018-08-23T03:38:59.987Z,92.30
2018-08-23T03:40:00.002Z,91.30
2018-08-23T03:40:59.990Z,97.80
2018-08-23T03:42:00.015Z,96.30
2018-08-23T03:43:00.096Z,94.00
2018-08-23T03:44:00.076Z,97.40
2018-08-23T03:45:00.005Z,95.40
2018-08-23T03:46:00.069Z,94.60
2018-08-23T03:47:00.038Z,92.50
2018-08-23T03:48:00.071Z,94.20
2018-08-23T03:49:00.028Z,99.40
2018-08-23T03:50:00.027Z,96.00
2018-08-23T03:51:00.040Z,97.10
2018-08-23T03:52:00.057Z,98.20
2018-08-23T03:53:00.858Z,96.00
2018-08-23T03:54:00.026Z,99.30
2018-08-23T03:55:00.041Z,94.80
2018-08-23T03:56:00.080Z,99.20
2018-08-23T03:57:00.046Z,97.00
2018-08-23T03:58:00.064Z,94.60
2018-08-23T03:59:00.059Z,91.70
2018-08-23T04:00:00.053Z,94.00
2018-08-23T04:01:00.075Z,92.90
2018-08-23T04:02:00.110Z,93.50
2018-08-23T04:03:00.062Z,96.60
2018-08-23T04:04:00.059Z,92.10
2018-08-23T04:05:00.071Z,98.10
2018-08-23T04:06:00.068Z,99.50
2018-08-23T04:07:00.064Z,100.70
2018-08-23T04:08:00.101Z,103.80
2018-08-23T04:09:00.084Z,99.70
2018-08-23T04:10:00.091Z,103.20
2018-08-23T04:11:00.867Z,101.60
2018-08-23T04:12:00.090Z,103.70
2018-08-23T04:13:00.117Z,102.70
2018-08-23T04:14:00.118Z,101.70
2018-08-23T04:15:00.102Z,103.60
2018-08-23T04:16:00.094Z,102.20
2018-08-23T04:17:00.149Z,105.80
2018-08-23T04:18:00.123Z,105.80
2018-08-23T04:19:00.103Z,104.50
2018-08-23T04:20:00.107Z,103.10
2018-08-23T04:21:00.117Z,102.90
2018-08-23T04:22:00.118Z,101.90
2018-08-23T04:23:00.200Z,106.20
2018-08-23T04:24:00.875Z,102.80
2018-08-23T04:25:00.125Z,102.70
2018-08-23T04:26:00.143Z,99.70
2018-08-23T04:27:00.120Z,103.70
2018-08-23T04:28:00.157Z,99.00
2018-08-23T04:29:00.135Z,102.80
2018-08-23T04:30:00.149Z,100.90
2018-08-23T04:31:00.138Z,98.80
2018-08-23T04:32:00.144Z,100.90
2018-08-23T04:33:00.164Z,104.20
2018-08-23T04:34:00.145Z,100.80
2018-08-23T04:35:00.144Z,103.70
2018-08-23T04:36:00.179Z,106.90
2018-08-23T04:37:00.173Z,104.00
2018-08-23T04:38:00.180Z,104.80
2018-08-23T04:39:00.175Z,102.50
2018-08-23T04:40:00.179Z,100.00
2018-08-23T04:41:00.173Z,100.30
2018-08-23T04:42:00.180Z,97.50
2018-08-23T04:43:00.195Z,103.20
2018-08-23T04:44:00.197Z,103.90
2018-08-23T04:45:00.260Z,101.40
2018-08-23T04:46:00.172Z,99.40
2018-08-23T04:47:00.275Z,102.50
2018-08-23T04:48:00.188Z,99.10
2018-08-23T04:49:00.191Z,100.40
2018-08-23T04:50:00.200Z,95.90
2018-08-23T04:51:00.192Z,97.70
2018-08-23T04:52:00.297Z,98.80
2018-08-23T04:53:00.197Z,101.50
2018-08-23T04:54:00.248Z,98.80
2018-08-23T04:55:00.201Z,102.70
2018-08-23T04:56:00.244Z,101.10
2018-08-23T04:57:00.268Z,99.60
2018-08-23T04:58:00.228Z,101.30
2018-08-23T04:59:00.226Z,96.90
2018-08-23T05:00:00.219Z,95.70
2018-08-23T05:01:00.241Z,96.80
2018-08-23T05:02:00.259Z,98.60
2018-08-23T05:03:00.249Z,93.30
2018-08-23T05:04:00.333Z,95.60
2018-08-23T05:05:00.364Z,95.60
2018-08-23T05:06:00.252Z,94.60
2018-08-23T05:07:00.257Z,94.50
2018-08-23T05:08:00.233Z,95.90
2018-08-23T05:09:00.283Z,93.80
2018-08-23T05:10:00.249Z,92.50
2018-08-23T05:11:00.244Z,90.20
2018-08-23T05:12:00.275Z,88.30
2018-08-23T05:13:00.241Z,91.10
2018-08-23T05:14:00.327Z,87.70
2018-08-23T05:15:00.298Z,86.50
2018-08-23T05:16:00.260Z,89.30
2018-08-23T05:17:00.284Z,89.10
2018-08-23T05:18:00.891Z,86.70
2018-08-23T05:19:00.302Z,86.30
2018-08-23T05:20:00.279Z,83.60
2018-08-23T05:21:00.305Z,83.00
2018-08-23T05:22:00.385Z,82.30
2018-08-23T05:23:00.340Z,87.20
2018-08-23T05:24:00.285Z,84.60
2018-08-23T05:25:00.294Z,85.90
2018-08-23T05:26:00.293Z,82.90
2018-08-23T05:27:00.298Z,85.50
2018-08-23T05:28:00.313Z,85.70
2018-08-23T05:29:00.318Z,86.00
2018-08-23T05:30:00.342Z,85.40
2018-08-23T05:31:00.356Z,83.30
2018-08-23T05:32:00.318Z,83.00
2018-08-23T05:33:00.331Z,82.70
2018-08-23T05:34:00.338Z,82.30
2018-08-23T05:35:00.334Z,82.30
2018-08-23T05:36:00.329Z,82.90
2018-08-23T05:37:00.355Z,83.80
2018-08-23T05:38:00.356Z,84.20
2018-08-23T05:39:00.342Z,80.30
2018-08-23T05:40:00.380Z,81.40
2018-08-23T05:41:00.897Z,76.10
2018-08-23T05:42:00.361Z,75.30
2018-08-23T05:43:00.391Z,77.00
2018-08-23T05:44:00.360Z,75.80
2018-08-23T05:45:00.352Z,73.10
2018-08-23T05:46:00.384Z,78.80
2018-08-23T05:47:00.349Z,76.30
2018-08-23T05:48:00.384Z,73.10
2018-08-23T05:49:00.370Z,72.40
2018-08-23T05:50:00.407Z,70.60
2018-08-23T05:51:00.368Z,69.40
2018-08-23T05:52:00.438Z,65.60
2018-08-23T05:53:00.390Z,67.20
2018-08-23T05:54:00.380Z,67.10
2018-08-23T05:55:00.444Z,66.80
2018-08-23T05:56:00.379Z,65.80
2018-08-23T05:57:00.401Z,63.80
2018-08-23T05:58:00.393Z,63.90
2018-08-23T05:59:00.388Z,63.60
2018-08-23T06:00:00.409Z,64.30
2018-08-23T06:01:00.432Z,64.90
2018-08-23T06:02:00.437Z,62.20
2018-08-23T06:03:00.433Z,61.90
2018-08-23T06:04:00.422Z,65.70
2018-08-23T06:05:00.424Z,60.80
2018-08-23T06:06:01.545Z,62.30
2018-08-23T06:07:00.457Z,62.90
2018-08-23T06:08:00.467Z,65.00
2018-08-23T06:09:00.543Z,61.20
2018-08-23T06:10:00.442Z,61.50
2018-08-23T06:11:00.463Z,59.40
2018-08-23T06:12:00.645Z,60.20
2018-08-23T06:13:00.520Z,57.70
2018-08-23T06:14:00.497Z,59.10
2018-08-23T06:15:00.449Z,59.00
2018-08-23T06:16:00.475Z,58.80
2018-08-23T06:17:00.469Z,57.70
2018-08-23T06:18:00.504Z,56.90
2018-08-23T06:19:00.494Z,56.40
2018-08-23T06:20:00.716Z,56.50
2018-08-23T06:21:00.483Z,55.40
2018-08-23T06:22:01.421Z,55.80
2018-08-23T06:23:00.485Z,55.90
2018-08-23T06:24:00.904Z,56.30
2018-08-23T06:25:00.503Z,53.70
2018-08-23T06:26:00.499Z,48.90
2018-08-23T06:27:00.493Z,51.50
2018-08-23T06:28:00.523Z,54.20
2018-08-23T06:29:00.549Z,54.60
2018-08-23T06:30:00.533Z,53.60
2018-08-23T06:31:00.512Z,56.20
2018-08-23T06:32:00.542Z,54.30
2018-08-23T06:33:01.491Z,56.60
2018-08-23T06:34:00.593Z,59.60
2018-08-23T06:35:00.550Z,58.10
2018-08-23T06:36:00.551Z,59.70
2018-08-23T06:37:00.564Z,60.30
2018-08-23T06:38:00.551Z,62.10
2018-08-23T06:39:00.571Z,58.60
2018-08-23T06:40:00.632Z,60.90
2018-08-23T06:41:00.589Z,61.70
2018-08-23T06:42:00.612Z,63.40
2018-08-23T06:43:00.594Z,62.40
2018-08-23T06:44:00.585Z,62.30
2018-08-23T06:45:00.617Z,63.60
2018-08-23T06:46:00.611Z,62.00
2018-08-23T06:47:00.621Z,61.40
2018-08-23T06:48:00.605Z,60.20
2018-08-23T06:49:00.724Z,60.80
2018-08-23T06:50:00.691Z,58.80
2018-08-23T06:51:00.732Z,57.60
2018-08-23T06:52:00.677Z,59.70
2018-08-23T06:53:00.768Z,58.20
2018-08-23T06:54:00.703Z,59.30
2018-08-23T06:55:00.662Z,58.60
2018-08-23T06:56:00.674Z,58.10
2018-08-23T06:57:00.685Z,58.50
2018-08-23T06:58:00.688Z,56.90
2018-08-23T06:59:00.730Z,57.70
2018-08-23T07:00:00.674Z,55.70
2018-08-23T07:01:00.701Z,54.80
2018-08-23T07:02:00.695Z,55.20
2018-08-23T07:03:01.448Z,60.10
2018-08-23T07:04:00.724Z,56.60
2018-08-23T07:05:00.738Z,55.30
2018-08-23T07:06:00.764Z,55.10
2018-08-23T07:07:00.717Z,56.20
2018-08-23T07:08:00.824Z,55.50
2018-08-23T07:09:00.741Z,52.40
2018-08-23T07:10:00.746Z,54.60
2018-08-23T07:11:00.760Z,51.50
2018-08-23T07:12:00.759Z,52.60
2018-08-23T07:13:00.790Z,51.90
2018-08-23T07:14:00.766Z,51.40
2018-08-23T07:15:00.773Z,49.40
2018-08-23T07:16:00.865Z,51.70
2018-08-23T07:17:00.829Z,51.30
2018-08-23T07:18:00.830Z,49.70
2018-08-23T07:19:00.827Z,50.50
2018-08-23T07:20:00.837Z,48.70
2018-08-23T07:21:00.908Z,49.40
2018-08-23T07:22:00.893Z,50.10
2018-08-23T07:23:00.915Z,49.70
2018-08-23T07:24:00.873Z,49.00
2018-08-23T07:25:00.920Z,48.80
2018-08-23T07:26:00.891Z,48.60
2018-08-23T07:27:00.899Z,49.10
2018-08-23T07:28:01.318Z,47.50
2018-08-23T07:29:00.998Z,48.00
2018-08-23T07:30:01.059Z,49.90
2018-08-23T07:31:01.081Z,48.80
2018-08-23T07:32:00.969Z,48.90
2018-08-23T07:33:00.995Z,47.00
2018-08-23T07:34:00.972Z,51.60
2018-08-23T07:35:00.991Z,50.60
2018-08-23T07:36:01.019Z,48.70
2018-08-23T07:37:01.329Z,49.20
2018-08-23T07:38:01.061Z,49.00
2018-08-23T07:39:01.038Z,49.60
2018-08-23T07:40:01.122Z,47.50
2018-08-23T07:41:01.087Z,47.80
2018-08-23T07:42:01.069Z,47.30
2018-08-23T07:43:01.357Z,48.10
2018-08-23T07:44:01.149Z,49.80
2018-08-23T07:45:01.147Z,50.10
2018-08-23T07:46:01.081Z,47.50
2018-08-23T07:47:01.243Z,46.90
2018-08-23T07:48:01.089Z,48.40
2018-08-23T07:49:01.104Z,46.40
2018-08-23T07:50:01.110Z,44.70
2018-08-23T07:51:01.990Z,42.30
2018-08-23T07:52:01.145Z,41.40
2018-08-23T07:53:01.194Z,41.40
2018-08-23T07:54:01.208Z,38.80
2018-08-23T07:55:01.188Z,41.00
2018-08-23T07:56:01.207Z,38.20
2018-08-23T07:57:01.227Z,38.70
2018-08-23T07:58:01.348Z,39.50
2018-08-23T07:59:01.326Z,41.00
2018-08-23T08:00:01.267Z,38.60
2018-08-23T08:01:01.258Z,36.90
2018-08-23T08:02:01.345Z,37.70
2018-08-23T08:03:01.293Z,36.70
2018-08-23T08:04:02.007Z,36.00
2018-08-23T08:05:01.382Z,35.00
2018-08-23T08:06:01.385Z,32.80
2018-08-23T08:07:01.362Z,32.80
2018-08-23T08:08:02.000Z,32.80
2018-08-23T08:09:02.520Z,33.50
2018-08-23T08:10:01.451Z,33.40
2018-08-23T08:11:03.502Z,34.10
2018-08-23T08:12:02.034Z,34.70
2018-08-23T08:13:03.505Z,36.30
2018-08-23T08:14:05.000Z,34.60
2018-08-23T08:15:02.527Z,35.70
2018-08-23T08:16:02.074Z,34.50
2018-08-23T08:17:01.538Z,34.90
2018-08-23T08:18:01.500Z,34.10
2018-08-23T08:19:03.504Z,34.90
2018-08-23T08:20:01.526Z,36.10
2018-08-23T08:21:02.184Z,34.60
2018-08-23T08:22:02.011Z,34.90
2018-08-23T08:23:02.507Z,34.10
2018-08-23T08:24:02.551Z,35.30
2018-08-23T08:25:02.510Z,33.00
2018-08-23T08:26:02.081Z,32.80
2018-08-23T08:27:02.524Z,33.30
2018-08-23T08:28:02.615Z,33.50
2018-08-23T08:29:02.749Z,32.90
2018-08-23T08:30:02.578Z,32.90
2018-08-23T08:31:03.713Z,33.10
2018-08-23T08:32:02.621Z,31.80
2018-08-23T08:33:03.543Z,31.90
2018-08-23T08:34:02.619Z,32.50
2018-08-23T08:35:03.516Z,31.00
2018-08-23T08:36:02.681Z,31.20
2018-08-23T08:37:02.529Z,31.90
2018-08-23T08:38:03.538Z,31.60
2018-08-23T08:39:02.558Z,31.10
2018-08-23T08:40:02.661Z,29.60
2018-08-23T08:41:02.592Z,29.30
2018-08-23T08:42:04.116Z,27.00
2018-08-23T08:43:03.527Z,25.70
2018-08-23T08:44:02.787Z,26.40
2018-08-23T08:45:02.722Z,26.30
2018-08-23T08:46:02.754Z,25.50
2018-08-23T08:47:03.112Z,26.00
2018-08-23T08:48:05.522Z,24.20
2018-08-23T08:49:02.775Z,23.80
2018-08-23T08:50:01.944Z,22.70
2018-08-23T08:51:02.526Z,22.90
2018-08-23T08:52:02.078Z,24.50
2018-08-23T08:53:02.029Z,23.60
2018-08-23T08:54:02.010Z,24.10
2018-08-23T08:55:02.011Z,23.90
2018-08-23T08:56:02.035Z,23.20
2018-08-23T08:57:02.078Z,21.00
2018-08-23T08:58:02.101Z,22.00
2018-08-23T08:59:02.078Z,21.00
2018-08-23T09:00:02.078Z,19.60
2018-08-23T09:01:02.107Z,20.80
2018-08-23T09:02:02.113Z,19.60
2018-08-23T09:03:02.190Z,20.80
2018-08-23T09:04:03.243Z,22.60
2018-08-23T09:05:02.287Z,21.40
2018-08-23T09:06:02.196Z,20.40
2018-08-23T09:07:02.188Z,20.20
2018-08-23T09:08:02.249Z,20.20
2018-08-23T09:09:02.280Z,18.60
2018-08-23T09:10:02.246Z,20.00
2018-08-23T09:11:02.267Z,20.10
2018-08-23T09:12:02.593Z,18.70
2018-08-23T09:13:02.304Z,21.50
2018-08-23T09:14:02.411Z,19.60
2018-08-23T09:15:02.335Z,19.60
2018-08-23T09:16:03.046Z,18.70
2018-08-23T09:17:02.368Z,18.40
2018-08-23T09:18:03.274Z,17.70
2018-08-23T09:19:02.508Z,17.90
2018-08-23T09:20:02.454Z,17.10
2018-08-23T09:21:02.422Z,16.10
2018-08-23T09:22:02.470Z,15.10
2018-08-23T09:23:02.763Z,14.70
2018-08-23T09:24:03.583Z,14.80
2018-08-23T09:25:02.502Z,14.70
2018-08-23T09:26:03.107Z,15.20
2018-08-23T09:27:02.550Z,16.80
2018-08-23T09:28:02.548Z,17.70
2018-08-23T09:29:02.587Z,17.40
2018-08-23T09:30:02.611Z,18.20
2018-08-23T09:31:02.621Z,16.80
2018-08-23T09:32:02.720Z,15.20
2018-08-23T09:33:02.686Z,18.30
2018-08-23T09:34:02.744Z,17.80
2018-08-23T09:35:02.778Z,18.80
2018-08-23T09:36:02.759Z,17.40
2018-08-23T09:37:02.873Z,17.30
2018-08-23T09:38:02.778Z,17.40
2018-08-23T09:39:02.772Z,17.20
2018-08-23T09:40:03.207Z,16.50
2018-08-23T09:41:02.813Z,15.10
2018-08-23T09:42:02.812Z,16.30
2018-08-23T09:43:02.961Z,16.20
2018-08-23T09:44:02.979Z,14.00
2018-08-23T09:45:02.866Z,15.40
2018-08-23T09:46:02.868Z,13.80
2018-08-23T09:47:02.917Z,13.70
2018-08-23T09:48:03.178Z,12.90
2018-08-23T09:49:02.957Z,12.70
2018-08-23T09:50:03.041Z,14.00
2018-08-23T09:51:03.055Z,14.40
2018-08-23T09:52:02.995Z,16.00
2018-08-23T09:53:03.018Z,16.10
2018-08-23T09:54:03.129Z,14.80
2018-08-23T09:55:03.062Z,12.60
2018-08-23T09:56:03.184Z,11.70
2018-08-23T09:57:05.696Z,13.10
2018-08-23T09:58:03.119Z,12.20
2018-08-23T09:59:03.329Z,12.20
2018-08-23T10:00:03.223Z,12.00
2018-08-23T10:01:03.197Z,13.10
2018-08-23T10:02:03.165Z,12.60
2018-08-23T10:03:03.260Z,12.30
2018-08-23T10:04:03.227Z,11.50
2018-08-23T10:05:04.171Z,12.10
2018-08-23T10:06:03.259Z,12.50
2018-08-23T10:07:03.286Z,11.80
2018-08-23T10:08:03.300Z,11.80
2018-08-23T10:09:03.357Z,12.40
2018-08-23T10:10:03.335Z,13.30
2018-08-23T10:11:04.158Z,13.00
2018-08-23T10:12:03.569Z,12.20
2018-08-23T10:13:03.424Z,12.50
2018-08-23T10:14:03.418Z,11.60
2018-08-23T10:15:03.542Z,11.40
2018-08-23T10:16:03.471Z,12.20
2018-08-23T10:17:03.500Z,13.50
2018-08-23T10:18:03.493Z,12.40
2018-08-23T10:19:03.515Z,11.50
2018-08-23T10:20:03.516Z,13.10
2018-08-23T10:21:03.542Z,12.80
2018-08-23T10:22:03.567Z,14.00
2018-08-23T10:23:03.593Z,16.00
2018-08-23T10:24:03.721Z,14.60
2018-08-23T10:25:03.648Z,16.10
2018-08-23T10:26:03.645Z,15.60
2018-08-23T10:27:03.810Z,14.10
2018-08-23T10:28:03.727Z,15.70
2018-08-23T10:29:03.762Z,15.00
2018-08-23T10:30:03.707Z,15.70
2018-08-23T10:31:03.974Z,14.30
2018-08-23T10:32:03.732Z,13.30
2018-08-23T10:33:03.829Z,13.10
2018-08-23T10:34:04.674Z,13.40
2018-08-23T10:35:03.822Z,13.60
2018-08-23T10:36:03.893Z,15.40
2018-08-23T10:37:04.029Z,14.50
2018-08-23T10:38:03.920Z,15.20
2018-08-23T10:39:03.889Z,13.50
2018-08-23T10:40:03.905Z,13.50
2018-08-23T10:41:03.886Z,13.90
2018-08-23T10:42:03.930Z,12.40
2018-08-23T10:43:05.205Z,13.40
2018-08-23T10:44:04.290Z,12.70
2018-08-23T10:45:03.975Z,14.00
2018-08-23T10:46:04.019Z,14.10
2018-08-23T10:47:04.002Z,14.10
2018-08-23T10:48:04.694Z,13.20
2018-08-23T10:49:04.050Z,14.30
2018-08-23T10:50:04.046Z,14.30
2018-08-23T10:51:04.086Z,14.10
2018-08-23T10:52:04.231Z,15.40
2018-08-23T10:53:04.146Z,15.20
2018-08-23T10:54:04.685Z,13.50
2018-08-23T10:55:04.155Z,13.60
2018-08-23T10:56:04.136Z,13.30
2018-08-23T10:57:04.174Z,14.30
2018-08-23T10:58:04.214Z,13.70
2018-08-23T10:59:04.221Z,14.00
2018-08-23T11:00:04.213Z,14.20
2018-08-23T11:01:04.226Z,13.40
2018-08-23T11:02:04.219Z,13.50
2018-08-23T11:03:04.217Z,15.20
2018-08-23T11:04:05.200Z,15.20
2018-08-23T11:05:04.255Z,15.30
2018-08-23T11:06:04.301Z,14.90
2018-08-23T11:07:04.283Z,14.00
2018-08-23T11:08:04.375Z,13.00
2018-08-23T11:09:04.385Z,14.10
2018-08-23T11:10:04.329Z,15.70
2018-08-23T11:11:04.820Z,16.30
2018-08-23T11:12:05.201Z,14.50
2018-08-23T11:13:04.373Z,14.20
2018-08-23T11:14:04.370Z,14.00
2018-08-23T11:15:04.433Z,15.20
2018-08-23T11:16:04.543Z,14.90
2018-08-23T11:17:04.596Z,14.80
2018-08-23T11:18:04.457Z,14.40
2018-08-23T11:19:04.459Z,14.40
2018-08-23T11:20:04.466Z,15.40
2018-08-23T11:21:04.566Z,16.90
2018-08-23T11:22:04.765Z,16.70
2018-08-23T11:23:04.592Z,16.70
2018-08-23T11:24:04.596Z,18.90
2018-08-23T11:25:04.512Z,17.20
2018-08-23T11:26:04.569Z,16.70
2018-08-23T11:27:04.623Z,16.40
2018-08-23T11:28:04.704Z,16.40
2018-08-23T11:29:04.711Z,15.80
2018-08-23T11:30:04.683Z,14.50
2018-08-23T11:31:04.630Z,17.40
2018-08-23T11:32:04.661Z,17.80
2018-08-23T11:33:04.767Z,18.80
2018-08-23T11:34:04.888Z,19.60
2018-08-23T11:35:04.758Z,17.40
2018-08-23T11:36:04.686Z,18.20
2018-08-23T11:37:04.744Z,17.40
2018-08-23T11:38:04.698Z,16.40
2018-08-23T11:39:04.814Z,18.10
2018-08-23T11:40:04.762Z,16.40
2018-08-23T11:41:04.843Z,18.20
2018-08-23T11:42:04.914Z,17.70
2018-08-23T11:43:05.718Z,17.60
2018-08-23T11:44:05.397Z,17.00
2018-08-23T11:45:05.385Z,17.50
2018-08-23T11:46:04.850Z,18.30
2018-08-23T11:47:04.832Z,19.00
2018-08-23T11:48:05.539Z,17.70
2018-08-23T11:49:04.886Z,17.70
2018-08-23T11:50:05.348Z,19.10
2018-08-23T11:51:04.849Z,17.90
2018-08-23T11:52:04.972Z,16.00
2018-08-23T11:53:05.450Z,15.50
2018-08-23T11:54:05.121Z,14.10
2018-08-23T11:55:04.981Z,13.80
2018-08-23T11:56:05.028Z,12.60
2018-08-23T11:57:05.081Z,13.20
2018-08-23T11:58:05.047Z,12.50
2018-08-23T11:59:04.965Z,13.50
2018-08-23T12:00:05.728Z,13.80
2018-08-23T12:01:07.895Z,13.80
2018-08-23T12:02:04.975Z,13.20
2018-08-23T12:03:05.280Z,12.10
2018-08-23T12:04:05.862Z,12.50
2018-08-23T12:05:04.994Z,14.00
2018-08-23T12:06:05.164Z,13.90
2018-08-23T12:07:06.457Z,12.80
2018-08-23T12:08:05.236Z,13.00
2018-08-23T12:09:05.328Z,13.60
2018-08-23T12:10:05.092Z,14.60
2018-08-23T12:11:05.033Z,14.10
2018-08-23T12:12:05.982Z,14.60
2018-08-23T12:13:05.138Z,14.90
2018-08-23T12:14:05.057Z,14.70
2018-08-23T12:15:05.058Z,13.80
2018-08-23T12:16:05.098Z,13.30
2018-08-23T12:17:05.087Z,13.60
2018-08-23T12:18:05.065Z,14.40
2018-08-23T12:19:05.704Z,16.80
2018-08-23T12:20:05.265Z,15.20
2018-08-23T12:21:05.160Z,15.00
2018-08-23T12:22:05.739Z,13.40
2018-08-23T12:23:05.237Z,13.80
2018-08-23T12:24:05.207Z,13.70
2018-08-23T12:25:05.197Z,12.30
2018-08-23T12:26:05.327Z,12.50
2018-08-23T12:27:05.146Z,12.90
2018-08-23T12:28:05.165Z,12.40
2018-08-23T12:29:05.553Z,11.60
2018-08-23T12:30:05.172Z,12.70
2018-08-23T12:31:05.331Z,13.70
2018-08-23T12:32:05.285Z,13.20
2018-08-23T12:33:05.267Z,12.30
2018-08-23T12:34:05.266Z,13.30
2018-08-23T12:35:05.281Z,13.40
2018-08-23T12:36:05.244Z,11.80
2018-08-23T12:37:05.271Z,11.40
2018-08-23T12:38:05.326Z,11.30
2018-08-23T12:39:05.308Z,13.10
2018-08-23T12:40:05.342Z,13.50
2018-08-23T12:41:05.417Z,14.20
2018-08-23T12:42:05.314Z,12.90
2018-08-23T12:43:06.253Z,13.90
2018-08-23T12:44:05.384Z,14.50
2018-08-23T12:45:05.369Z,14.70
2018-08-23T12:46:05.468Z,15.60
2018-08-23T12:47:05.449Z,16.00
2018-08-23T12:48:06.261Z,17.10
2018-08-23T12:49:05.487Z,14.70
2018-08-23T12:50:05.407Z,15.20
2018-08-23T12:51:05.540Z,15.60
2018-08-23T12:52:05.410Z,17.70